createdAt,value
2019-02-25T00:01:57.616Z,99.90
2019-02-25T00:04:26.625Z,99.90
2019-02-25T00:06:54.945Z,99.90
2019-02-25T00:09:23.285Z,99.90
2019-02-25T00:11:51.694Z,99.90
2019-02-25T00:14:20.107Z,99.90
2019-02-25T00:16:48.431Z,99.90
2019-02-25T00:19:17.169Z,99.90
2019-02-25T00:21:45.515Z,99.90
2019-02-25T00:24:13.903Z,99.90
2019-02-25T00:26:42.595Z,99.90
2019-02-25T00:29:10.983Z,99.90
2019-02-25T00:31:39.339Z,99.90
2019-02-25T00:34:07.812Z,99.90
2019-02-25T00:36:36.148Z,99.90
2019-02-25T00:39:04.574Z,99.90
2019-02-25T00:41:33.416Z,99.90
2019-02-25T00:44:01.887Z,99.90
2019-02-25T00:46:30.201Z,99.90
2019-02-25T00:48:58.819Z,99.90
2019-02-25T00:51:27.200Z,99.90
2019-02-25T00:53:55.540Z,99.90
2019-02-25T00:56:24.089Z,99.90
2019-02-25T00:58:52.488Z,99.90
2019-02-25T01:01:20.902Z,99.90
2019-02-25T01:03:49.509Z,99.90
2019-02-25T01:06:18.150Z,99.90
2019-02-25T01:08:46.491Z,99.90
2019-02-25T01:11:14.968Z,99.90
2019-02-25T01:13:43.347Z,99.90
2019-02-25T01:16:11.678Z,99.90
2019-02-25T01:18:40.412Z,99.90
2019-02-25T01:21:08.804Z,99.90
2019-02-25T01:23:37.125Z,99.90
2019-02-25T01:26:05.613Z,99.90
2019-02-25T01:28:34.271Z,99.90
2019-02-25T01:31:02.680Z,99.90
2019-02-25T01:33:31.315Z,99.90
2019-02-25T01:35:59.973Z,99.90
2019-02-25T01:38:28.274Z,99.90
2019-02-25T01:40:57.036Z,99.90
2019-02-25T01:43:25.463Z,99.90
2019-02-25T01:45:53.893Z,99.90
2019-02-25T01:48:22.522Z,99.90
2019-02-25T01:50:50.915Z,99.90
2019-02-25T01:53:19.207Z,99.90
2019-02-25T01:55:47.917Z,99.90
2019-02-25T01:58:16.264Z,99.90
2019-02-25T02:00:44.643Z,99.90
2019-02-25T02:03:13.357Z,99.90
2019-02-25T02:05:41.775Z,99.90
2019-02-25T02:08:10.221Z,99.90
2019-02-25T02:10:39.102Z,99.90
2019-02-25T02:13:13.935Z,99.90
2019-02-25T02:15:35.891Z,99.90
2019-02-25T02:18:04.334Z,99.90
2019-02-25T02:20:32.886Z,99.90
2019-02-25T02:23:01.216Z,99.90
2019-02-25T02:25:30.003Z,99.90
2019-02-25T02:27:58.402Z,99.90
2019-02-25T02:30:26.740Z,99.90
2019-02-25T02:32:55.253Z,99.90
2019-02-25T02:35:23.683Z,99.90
2019-02-25T02:37:52.362Z,99.90
2019-02-25T02:40:20.971Z,99.90
2019-02-25T02:42:51.713Z,99.90
2019-02-25T02:46:00.311Z,99.90
2019-02-25T02:48:32.526Z,99.90
2019-02-25T02:51:00.830Z,99.90
2019-02-25T02:53:29.750Z,99.90
2019-02-25T02:55:58.441Z,99.90
2019-02-25T02:58:26.821Z,99.90
2019-02-25T03:00:55.404Z,99.90
2019-02-25T03:03:23.904Z,99.90
2019-02-25T03:05:52.252Z,99.90
2019-02-25T03:08:20.794Z,99.90
2019-02-25T03:10:49.317Z,99.90
2019-02-25T03:13:17.768Z,99.90
2019-02-25T03:15:46.183Z,99.90
2019-02-25T03:18:14.549Z,99.90
2019-02-25T03:20:42.926Z,99.90
2019-02-25T03:23:11.552Z,99.90
2019-02-25T03:25:39.893Z,99.90
2019-02-25T03:28:08.615Z,99.90
2019-02-25T03:30:37.047Z,99.90
2019-02-25T03:33:05.407Z,99.90
2019-02-25T03:35:33.766Z,99.90
2019-02-25T03:38:02.565Z,99.90
2019-02-25T03:40:30.963Z,99.90
2019-02-25T03:42:59.266Z,99.90
2019-02-25T03:45:27.832Z,99.90
2019-02-25T03:47:56.448Z,99.90
2019-02-25T03:50:24.858Z,99.90
2019-02-25T03:52:53.442Z,99.90
2019-02-25T03:55:21.863Z,99.90
2019-02-25T03:57:50.243Z,99.90
2019-02-25T04:00:20.555Z,99.90
2019-02-25T04:02:48.844Z,99.90
2019-02-25T04:05:17.149Z,99.90
2019-02-25T04:07:46.645Z,99.90
2019-02-25T04:10:15.066Z,99.90
2019-02-25T04:12:43.671Z,99.90
2019-02-25T04:15:14.229Z,99.90
2019-02-25T04:17:42.636Z,99.90
2019-02-25T04:20:12.741Z,99.90
2019-02-25T04:22:41.292Z,99.90
2019-02-25T04:25:09.802Z,99.90
2019-02-25T04:27:38.181Z,99.90
2019-02-25T04:30:08.463Z,99.90
2019-02-25T04:32:37.111Z,99.90
2019-02-25T04:35:06.164Z,99.90
2019-02-25T04:37:34.613Z,99.90
2019-02-25T04:40:03.224Z,99.90
2019-02-25T04:42:31.577Z,99.90
2019-02-25T04:45:00.566Z,99.90
2019-02-25T04:47:28.977Z,99.90
2019-02-25T04:49:57.269Z,99.90
2019-02-25T04:52:25.700Z,99.90
2019-02-25T04:54:54.147Z,99.90
2019-02-25T04:57:22.454Z,99.90
2019-02-25T04:59:50.919Z,99.90
2019-02-25T05:02:19.349Z,99.90
2019-02-25T05:04:47.981Z,99.90
2019-02-25T05:07:16.787Z,99.90
2019-02-25T05:09:45.263Z,99.90
2019-02-25T05:12:13.603Z,99.90
2019-02-25T05:14:42.329Z,99.90
2019-02-25T05:17:10.700Z,99.90
2019-02-25T05:19:39.100Z,99.90
2019-02-25T05:22:07.550Z,99.90
2019-02-25T05:24:36.065Z,99.90
2019-02-25T05:27:04.522Z,99.90
2019-02-25T05:29:33.207Z,99.90
2019-02-25T05:32:01.604Z,99.90
2019-02-25T05:34:30.221Z,99.90
2019-02-25T05:36:58.611Z,99.90
2019-02-25T05:39:26.974Z,99.90
2019-02-25T05:41:55.344Z,99.90
2019-02-25T05:44:24.421Z,99.90
2019-02-25T05:46:52.796Z,99.90
2019-02-25T05:49:21.163Z,99.90
2019-02-25T05:51:49.835Z,99.90
2019-02-25T05:54:18.227Z,99.90
2019-02-25T05:56:46.613Z,99.90
2019-02-25T05:59:15.173Z,99.90
2019-02-25T06:01:43.821Z,99.90
2019-02-25T06:04:12.171Z,99.90
2019-02-25T06:06:40.570Z,99.90
2019-02-25T06:09:08.970Z,99.90
2019-02-25T06:11:37.468Z,99.90
2019-02-25T06:14:06.463Z,99.90
2019-02-25T06:16:34.812Z,99.90
2019-02-25T06:19:03.227Z,99.90
2019-02-25T06:21:31.607Z,99.90
2019-02-25T06:23:59.904Z,99.90
2019-02-25T06:26:28.276Z,99.90
2019-02-25T06:28:56.905Z,99.90
2019-02-25T06:31:25.429Z,99.90
2019-02-25T06:33:53.716Z,99.90
2019-02-25T06:36:22.169Z,99.90
2019-02-25T06:38:50.511Z,99.90
2019-02-25T06:41:18.846Z,99.90
2019-02-25T06:43:47.226Z,99.90
2019-02-25T06:46:15.621Z,99.90
2019-02-25T06:48:44.035Z,99.90
2019-02-25T06:51:12.738Z,99.90
2019-02-25T06:53:41.154Z,99.90
2019-02-25T06:56:10.125Z,99.90
2019-02-25T06:58:38.526Z,99.90
2019-02-25T07:01:07.093Z,99.90
2019-02-25T07:03:35.551Z,99.90
2019-02-25T07:06:11.303Z,99.90
2019-02-25T07:09:13.068Z,99.90
2019-02-25T07:11:49.920Z,99.90
2019-02-25T07:14:30.501Z,99.90
2019-02-25T07:17:37.135Z,99.90
2019-02-25T07:20:11.822Z,99.90
2019-02-25T07:22:45.433Z,99.90
2019-02-25T07:25:19.164Z,99.90
2019-02-25T07:27:52.731Z,99.90
2019-02-25T07:32:30.262Z,99.90
2019-02-25T07:37:08.192Z,99.90
2019-02-25T07:39:42.232Z,99.90
2019-02-25T07:42:23.921Z,99.90
2019-02-25T07:44:57.411Z,99.90
2019-02-25T07:47:33.015Z,99.90
2019-02-25T07:50:13.723Z,99.90
2019-02-25T07:52:59.430Z,99.90
2019-02-25T07:55:33.961Z,99.90
2019-02-25T07:58:38.615Z,99.90
2019-02-25T08:03:15.921Z,99.90
2019-02-25T08:05:59.703Z,99.90
2019-02-25T08:08:40.076Z,99.90
2019-02-25T08:11:14.629Z,99.90
2019-02-25T08:13:48.187Z,99.90
2019-02-25T08:16:36.797Z,99.90
2019-02-25T08:19:10.620Z,99.90
2019-02-25T08:23:46.300Z,99.90
2019-02-25T08:27:23.046Z,99.90
2019-02-25T08:30:06.004Z,99.90
2019-02-25T08:32:48.514Z,99.90
2019-02-25T08:35:33.868Z,99.90
2019-02-25T08:38:07.688Z,99.90
2019-02-25T08:40:46.999Z,99.90
2019-02-25T08:43:24.104Z,99.90
2019-02-25T08:45:56.883Z,99.90
2019-02-25T08:48:30.337Z,99.90
2019-02-25T08:50:59.352Z,99.90
2019-02-25T08:53:29.819Z,99.90
2019-02-25T08:55:58.236Z,99.90
2019-02-25T08:58:24.684Z,99.90
2019-02-25T09:00:53.044Z,99.90
2019-02-25T09:03:21.440Z,99.90
2019-02-25T09:05:50.113Z,99.90
2019-02-25T09:08:18.459Z,99.90
2019-02-25T09:10:47.040Z,99.90
2019-02-25T09:13:15.517Z,99.90
2019-02-25T09:15:43.883Z,99.90
2019-02-25T09:18:12.303Z,99.90
2019-02-25T09:20:40.768Z,99.90
2019-02-25T09:23:09.177Z,99.90
2019-02-25T09:25:37.587Z,99.90
2019-02-25T09:28:06.193Z,99.90
2019-02-25T09:30:34.611Z,99.90
2019-02-25T09:33:03.011Z,99.90
2019-02-25T09:35:31.669Z,99.90
2019-02-25T09:38:00.331Z,99.90
2019-02-25T09:40:28.716Z,99.90
2019-02-25T09:42:57.225Z,99.90
2019-02-25T09:45:25.522Z,98.70
2019-02-25T09:47:53.836Z,96.80
2019-02-25T09:50:22.277Z,96.30
2019-02-25T09:52:50.639Z,95.30
2019-02-25T09:55:19.013Z,95.40
2019-02-25T09:57:47.449Z,94.50
2019-02-25T10:00:16.337Z,93.70
2019-02-25T10:02:44.679Z,93.70
2019-02-25T10:05:13.992Z,92.10
2019-02-25T10:07:42.401Z,89.50
2019-02-25T10:10:12.390Z,90.40
2019-02-25T10:12:41.060Z,92.40
2019-02-25T10:15:11.281Z,92.70
2019-02-25T10:17:39.579Z,92.70
2019-02-25T10:20:08.873Z,93.30
2019-02-25T10:22:37.507Z,93.80
2019-02-25T10:25:06.309Z,91.60
2019-02-25T10:27:34.875Z,91.40
2019-02-25T10:30:04.151Z,90.00
2019-02-25T10:32:31.650Z,88.10
2019-02-25T10:35:00.331Z,88.50
2019-02-25T10:37:28.499Z,89.10
2019-02-25T10:39:56.858Z,90.60
2019-02-25T10:42:25.275Z,87.60
2019-02-25T10:44:53.584Z,86.80
2019-02-25T10:47:21.964Z,84.80
2019-02-25T10:49:50.556Z,86.00
2019-02-25T10:52:19.028Z,83.30
2019-02-25T10:54:47.878Z,84.10
2019-02-25T10:57:21.304Z,86.20
2019-02-25T10:59:47.565Z,86.00
2019-02-25T11:02:17.475Z,85.20
2019-02-25T11:04:44.437Z,89.50
2019-02-25T11:07:12.877Z,94.80
2019-02-25T11:10:04.362Z,98.60
2019-02-25T11:12:32.794Z,99.90
2019-02-25T11:15:01.271Z,99.90
2019-02-25T11:17:30.211Z,99.90
2019-02-25T11:20:00.340Z,99.90
2019-02-25T11:22:27.011Z,99.90
2019-02-25T11:24:57.721Z,99.90
2019-02-25T11:27:24.525Z,99.90
2019-02-25T11:29:52.863Z,99.90
2019-02-25T11:32:21.622Z,99.90
2019-02-25T11:34:49.748Z,99.90
2019-02-25T11:37:19.769Z,99.90
2019-02-25T11:39:46.757Z,99.90
2019-02-25T11:42:17.691Z,99.90
2019-02-25T11:44:43.595Z,99.90
2019-02-25T11:47:12.097Z,99.90
2019-02-25T11:49:40.480Z,99.90
2019-02-25T11:52:08.981Z,99.90
2019-02-25T11:54:37.409Z,99.90
2019-02-25T11:57:05.925Z,99.90
2019-02-25T11:59:34.303Z,99.90
2019-02-25T12:02:02.850Z,99.90
2019-02-25T12:04:31.252Z,99.90
2019-02-25T12:06:59.552Z,99.90
2019-02-25T12:09:28.021Z,99.90
2019-02-25T12:11:56.493Z,99.90
2019-02-25T12:14:24.877Z,99.90
2019-02-25T12:16:53.595Z,99.90
2019-02-25T12:19:22.039Z,99.90
2019-02-25T12:21:50.361Z,99.90
2019-02-25T12:24:19.025Z,99.90
2019-02-25T12:26:47.547Z,99.90
2019-02-25T12:29:16.066Z,99.90
2019-02-25T12:31:44.532Z,99.90
2019-02-25T12:34:13.231Z,99.90
2019-02-25T12:36:41.622Z,99.90
2019-02-25T12:39:10.173Z,99.90
2019-02-25T12:41:38.526Z,99.90
2019-02-25T12:44:07.066Z,99.90
2019-02-25T12:46:35.539Z,99.90
2019-02-25T12:49:04.193Z,99.90
2019-02-25T12:51:32.515Z,99.90
2019-02-25T12:54:01.014Z,99.90
2019-02-25T12:56:29.437Z,99.90
2019-02-25T12:58:57.767Z,99.90
2019-02-25T13:01:26.536Z,99.90
2019-02-25T13:03:54.915Z,99.90
2019-02-25T13:06:23.219Z,99.90
2019-02-25T13:08:51.998Z,99.90
2019-02-25T13:11:20.495Z,99.90
2019-02-25T13:13:48.880Z,99.90
2019-02-25T13:16:17.390Z,99.90
2019-02-25T13:18:45.742Z,99.90
2019-02-25T13:21:14.200Z,99.90
2019-02-25T13:23:42.690Z,99.90
2019-02-25T13:26:11.011Z,99.90
2019-02-25T13:28:39.385Z,99.90
2019-02-25T13:31:08.480Z,99.90
2019-02-25T13:33:36.151Z,99.90
2019-02-25T13:36:05.345Z,99.90
2019-02-25T13:38:33.929Z,99.90
2019-02-25T13:41:02.264Z,99.90
2019-02-25T13:43:30.602Z,99.90
2019-02-25T13:45:59.318Z,99.90
2019-02-25T13:48:27.970Z,99.90
2019-02-25T13:50:56.335Z,99.90
2019-02-25T13:53:25.248Z,99.90
2019-02-25T13:55:53.624Z,99.90
2019-02-25T13:58:22.019Z,99.90
2019-02-25T14:00:50.572Z,99.90
2019-02-25T14:03:19.200Z,99.90
2019-02-25T14:05:47.544Z,99.90
2019-02-25T14:08:16.204Z,99.90
2019-02-25T14:10:44.652Z,99.90
2019-02-25T14:13:13.208Z,99.90
2019-02-25T14:15:41.999Z,99.90
2019-02-25T14:18:10.322Z,99.90
2019-02-25T14:20:38.727Z,99.90
2019-02-25T14:23:07.440Z,99.90
2019-02-25T14:25:37.633Z,99.90
2019-02-25T14:28:07.833Z,99.90
2019-02-25T14:30:33.766Z,99.90
2019-02-25T14:33:02.189Z,99.90
2019-02-25T14:35:30.576Z,99.90
2019-02-25T14:38:05.056Z,99.90
2019-02-25T14:40:31.525Z,99.90
2019-02-25T14:42:56.918Z,99.90
2019-02-25T14:45:26.494Z,99.90
2019-02-25T14:47:57.571Z,99.90
2019-02-25T14:50:21.785Z,99.90
2019-02-25T14:52:50.470Z,99.90
2019-02-25T14:55:18.869Z,99.90
2019-02-25T14:57:47.400Z,99.90
2019-02-25T15:00:17.996Z,99.90
2019-02-25T15:02:47.738Z,99.90
2019-02-25T15:05:15.184Z,99.90
2019-02-25T15:07:44.972Z,99.90
2019-02-25T15:10:12.174Z,99.90
2019-02-25T15:12:40.540Z,99.90
2019-02-25T15:15:10.620Z,99.90
2019-02-25T15:17:39.833Z,99.90
2019-02-25T15:20:10.455Z,99.90
2019-02-25T15:22:38.377Z,99.90
2019-02-25T15:25:07.072Z,99.90
2019-02-25T15:27:35.724Z,99.90
2019-02-25T15:30:04.987Z,99.90
2019-02-25T15:32:34.991Z,99.90
2019-02-25T15:35:01.699Z,99.90
2019-02-25T15:37:30.308Z,99.90
2019-02-25T15:39:58.779Z,99.90
2019-02-25T15:42:27.940Z,99.90
2019-02-25T15:44:57.478Z,99.90
2019-02-25T15:47:24.305Z,99.90
2019-02-25T15:49:52.630Z,99.90
2019-02-25T15:52:22.909Z,99.90
2019-02-25T15:54:49.697Z,99.90
2019-02-25T15:57:18.053Z,99.90
2019-02-25T15:59:46.478Z,99.90
2019-02-25T16:02:14.934Z,99.90
2019-02-25T16:04:43.307Z,99.90
2019-02-25T16:07:12.206Z,99.90
2019-02-25T16:09:40.663Z,99.90
2019-02-25T16:12:09.645Z,99.90
2019-02-25T16:14:38.978Z,99.90
2019-02-25T16:17:06.330Z,99.90
2019-02-25T16:19:41.533Z,99.90
2019-02-25T16:22:03.951Z,99.90
2019-02-25T16:24:31.944Z,99.90
2019-02-25T16:27:01.020Z,99.90
2019-02-25T16:29:33.584Z,99.90
2019-02-25T16:32:02.034Z,99.90
2019-02-25T16:34:31.595Z,99.90
2019-02-25T16:37:00.370Z,99.90
2019-02-25T16:39:27.219Z,99.90
2019-02-25T16:41:55.600Z,99.90
2019-02-25T16:44:24.147Z,99.90
2019-02-25T16:46:54.055Z,99.90
2019-02-25T16:49:20.966Z,99.90
2019-02-25T16:51:51.020Z,99.90
2019-02-25T16:54:20.204Z,99.90
2019-02-25T16:56:46.210Z,99.90
2019-02-25T16:59:15.745Z,99.90
2019-02-25T17:01:43.222Z,99.90
2019-02-25T17:04:12.161Z,99.90
2019-02-25T17:06:40.173Z,99.90
2019-02-25T17:09:09.799Z,99.90
2019-02-25T17:11:37.967Z,99.90
2019-02-25T17:14:05.599Z,99.90
2019-02-25T17:16:34.169Z,99.90
2019-02-25T17:19:02.545Z,99.90
2019-02-25T17:21:31.392Z,99.90
2019-02-25T17:24:00.556Z,99.90
2019-02-25T17:26:28.171Z,99.90
2019-02-25T17:28:56.822Z,99.90
2019-02-25T17:31:25.146Z,99.90
2019-02-25T17:33:54.101Z,99.90
2019-02-25T17:36:22.416Z,99.90
2019-02-25T17:38:51.956Z,99.90
2019-02-25T17:41:19.456Z,99.90
2019-02-25T17:43:48.013Z,99.90
2019-02-25T17:46:16.352Z,99.90
2019-02-25T17:48:46.064Z,99.90
2019-02-25T17:51:13.602Z,99.90
2019-02-25T17:53:43.774Z,99.90
2019-02-25T17:56:10.244Z,99.90
2019-02-25T17:58:40.375Z,99.90
2019-02-25T18:01:07.246Z,99.90
2019-02-25T18:03:37.330Z,99.90
2019-02-25T18:06:05.286Z,99.90
2019-02-25T18:08:34.275Z,99.90
2019-02-25T18:11:01.307Z,99.90
2019-02-25T18:13:30.644Z,99.90
2019-02-25T18:15:58.795Z,99.90
2019-02-25T18:18:27.221Z,99.90
2019-02-25T18:20:55.772Z,99.90
2019-02-25T18:23:24.310Z,99.90
2019-02-25T18:25:53.587Z,99.90
2019-02-25T18:28:22.592Z,99.90
2019-02-25T18:30:49.575Z,99.90
2019-02-25T18:33:20.180Z,99.90
2019-02-25T18:35:46.676Z,99.90
2019-02-25T18:38:15.069Z,99.90
2019-02-25T18:40:45.776Z,99.90
2019-02-25T18:43:12.147Z,99.90
2019-02-25T18:45:42.637Z,99.90
2019-02-25T18:48:09.044Z,99.90
2019-02-25T18:50:39.299Z,99.90
2019-02-25T18:53:06.148Z,99.90
2019-02-25T18:55:34.544Z,99.90
2019-02-25T18:58:04.784Z,99.90
2019-02-25T19:00:33.565Z,99.90
2019-02-25T19:03:02.541Z,99.90
2019-02-25T19:05:31.465Z,99.90
2019-02-25T19:07:59.140Z,99.90
2019-02-25T19:10:27.572Z,99.90
2019-02-25T19:12:57.078Z,99.90
2019-02-25T19:15:24.752Z,99.90
2019-02-25T19:17:54.387Z,99.90
2019-02-25T19:20:22.095Z,99.90
2019-02-25T19:22:50.619Z,99.90
2019-02-25T19:25:20.881Z,99.90
2019-02-25T19:27:49.615Z,99.90
2019-02-25T19:30:19.590Z,99.90
2019-02-25T19:32:45.256Z,99.90
2019-02-25T19:35:14.059Z,99.90
2019-02-25T19:37:44.329Z,99.90
2019-02-25T19:40:14.273Z,99.90
2019-02-25T19:42:40.592Z,99.90
2019-02-25T19:45:10.071Z,99.90
2019-02-25T19:47:40.330Z,99.90
2019-02-25T19:50:09.815Z,99.90
2019-02-25T19:52:39.405Z,99.90
2019-02-25T19:55:07.966Z,99.90
2019-02-25T19:57:34.837Z,99.90
2019-02-25T20:00:03.348Z,99.90
2019-02-25T20:02:32.252Z,99.90
2019-02-25T20:05:00.236Z,99.90
2019-02-25T20:07:30.905Z,99.90
2019-02-25T20:09:57.857Z,99.90
2019-02-25T20:12:25.733Z,99.90
2019-02-25T20:14:54.247Z,99.90
2019-02-25T20:17:27.791Z,99.90
2019-02-25T20:19:51.926Z,99.90
2019-02-25T20:22:20.491Z,99.90
2019-02-25T20:24:50.711Z,99.90
2019-02-25T20:27:17.528Z,99.90
2019-02-25T20:29:47.878Z,99.90
2019-02-25T20:32:16.367Z,99.90
2019-02-25T20:34:45.941Z,99.90
2019-02-25T20:37:11.537Z,99.90
2019-02-25T20:39:41.153Z,99.90
2019-02-25T20:42:08.688Z,99.90
2019-02-25T20:44:37.055Z,99.90
2019-02-25T20:47:05.550Z,99.90
2019-02-25T20:49:34.061Z,99.90
2019-02-25T20:52:02.412Z,99.90
2019-02-25T20:54:30.852Z,99.90
2019-02-25T20:56:59.400Z,99.90
2019-02-25T20:59:28.735Z,99.90
2019-02-25T21:01:56.197Z,99.90
2019-02-25T21:04:24.695Z,99.90
2019-02-25T21:06:53.068Z,99.90
2019-02-25T21:09:21.560Z,99.90
2019-02-25T21:11:50.170Z,99.90
2019-02-25T21:14:18.460Z,99.90
2019-02-25T21:16:46.726Z,99.90
2019-02-25T21:19:17.571Z,99.90
2019-02-25T21:21:43.532Z,99.90
2019-02-25T21:24:13.607Z,99.90
2019-02-25T21:26:40.986Z,99.90
2019-02-25T21:29:09.718Z,99.90
2019-02-25T21:31:37.333Z,99.90
2019-02-25T21:34:05.776Z,99.90
2019-02-25T21:36:35.826Z,99.90
2019-02-25T21:39:02.784Z,99.90
2019-02-25T21:41:31.178Z,99.90
2019-02-25T21:43:59.544Z,99.90
2019-02-25T21:46:29.071Z,99.90
2019-02-25T21:48:57.524Z,99.90
2019-02-25T21:51:24.674Z,99.90
2019-02-25T21:53:55.589Z,99.90
2019-02-25T21:56:23.295Z,99.90
2019-02-25T21:58:51.039Z,99.90
2019-02-25T22:01:18.686Z,99.90
2019-02-25T22:03:48.619Z,99.90
2019-02-25T22:06:18.095Z,99.90
2019-02-25T22:08:43.952Z,99.90
2019-02-25T22:11:15.605Z,99.90
2019-02-25T22:13:40.697Z,99.90
2019-02-25T22:16:09.387Z,99.90
2019-02-25T22:18:38.020Z,99.90
2019-02-25T22:21:09.203Z,99.90
2019-02-25T22:23:37.044Z,99.90
2019-02-25T22:26:04.333Z,99.90
2019-02-25T22:28:34.378Z,99.90
2019-02-25T22:31:01.063Z,99.90
2019-02-25T22:33:30.462Z,99.90
2019-02-25T22:35:58.202Z,99.90
2019-02-25T22:38:26.540Z,99.90
2019-02-25T22:40:55.978Z,99.90
2019-02-25T22:43:23.504Z,99.90
2019-02-25T22:45:51.837Z,99.90
2019-02-25T22:48:21.537Z,99.90
2019-02-25T22:50:51.248Z,99.90
2019-02-25T22:53:17.569Z,99.90
2019-02-25T22:55:47.832Z,99.90
2019-02-25T22:58:16.948Z,99.90
2019-02-25T23:00:46.555Z,99.90
2019-02-25T23:03:17.796Z,99.90
2019-02-25T23:05:45.978Z,99.90
2019-02-25T23:08:13.091Z,99.90
2019-02-25T23:10:42.549Z,99.90
2019-02-25T23:13:09.691Z,99.90
2019-02-25T23:15:38.079Z,99.90
2019-02-25T23:18:10.113Z,99.90
2019-02-25T23:20:34.906Z,99.90
2019-02-25T23:23:06.516Z,99.90
2019-02-25T23:25:32.111Z,99.90
2019-02-25T23:28:02.193Z,99.90
2019-02-25T23:30:29.029Z,99.90
2019-02-25T23:32:57.451Z,99.90
2019-02-25T23:35:26.016Z,99.90
2019-02-25T23:37:56.260Z,99.90
2019-02-25T23:40:23.391Z,99.90
2019-02-25T23:42:51.766Z,99.90
2019-02-25T23:45:22.512Z,99.90
2019-02-25T23:47:49.138Z,99.90
2019-02-25T23:50:17.517Z,99.90
2019-02-25T23:52:45.844Z,99.90
2019-02-25T23:55:16.652Z,99.90
2019-02-25T23:57:42.918Z,99.90
